sensor_id;sensor_type;location;lat;lon;timestamp;temperature;humidity
22734;DHT22;11534;51.994;5.692;2023-08-08T00:02:21;15.00;99.90
22734;DHT22;11534;51.994;5.692;2023-08-08T00:04:46;15.00;99.90
22734;DHT22;11534;51.994;5.692;2023-08-08T00:07:12;14.90;99.90
22734;DHT22;11534;51.994;5.692;2023-08-08T00:09:37;15.00;99.90
22734;DHT22;11534;51.994;5.692;2023-08-08T00:12:03;15.00;99.90
22734;DHT22;11534;51.994;5.692;2023-08-08T00:14:29;15.00;99.90
22734;DHT22;11534;51.994;5.692;2023-08-08T00:16:55;15.00;99.90
22734;DHT22;11534;51.994;5.692;2023-08-08T00:19:20;15.00;99.90
22734;DHT22;11534;51.994;5.692;2023-08-08T00:21:46;15.00;99.90
22734;DHT22;11534;51.994;5.692;2023-08-08T00:24:12;15.00;99.90
22734;DHT22;11534;51.994;5.692;2023-08-08T00:26:37;15.10;99.90
22734;DHT22;11534;51.994;5.692;2023-08-08T00:29:03;15.10;99.90
22734;DHT22;11534;51.994;5.692;2023-08-08T00:31:28;15.10;99.90
22734;DHT22;11534;51.994;5.692;2023-08-08T00:33:54;15.10;99.90
22734;DHT22;11534;51.994;5.692;2023-08-08T00:36:19;15.10;99.90
22734;DHT22;11534;51.994;5.692;2023-08-08T00:38:45;15.10;99.90
22734;DHT22;11534;51.994;5.692;2023-08-08T00:41:11;15.20;99.90
22734;DHT22;11534;51.994;5.692;2023-08-08T00:43:36;15.10;99.90
22734;DHT22;11534;51.994;5.692;2023-08-08T00:46:02;15.20;99.90
22734;DHT22;11534;51.994;5.692;2023-08-08T00:48:28;15.20;99.90
22734;DHT22;11534;51.994;5.692;2023-08-08T00:50:53;15.20;99.90
22734;DHT22;11534;51.994;5.692;2023-08-08T00:53:19;15.20;99.90
22734;DHT22;11534;51.994;5.692;2023-08-08T00:55:45;15.30;99.90
22734;DHT22;11534;51.994;5.692;2023-08-08T00:58:12;15.20;99.90
22734;DHT22;11534;51.994;5.692;2023-08-08T01:00:38;15.30;99.90
22734;DHT22;11534;51.994;5.692;2023-08-08T01:03:04;15.20;99.90
22734;DHT22;11534;51.994;5.692;2023-08-08T01:05:38;15.30;99.90
22734;DHT22;11534;51.994;5.692;2023-08-08T01:08:06;15.30;99.90
22734;DHT22;11534;51.994;5.692;2023-08-08T01:10:40;15.30;99.90
22734;DHT22;11534;51.994;5.692;2023-08-08T01:13:16;15.40;99.90
22734;DHT22;11534;51.994;5.692;2023-08-08T01:15:43;15.40;99.90
22734;DHT22;11534;51.994;5.692;2023-08-08T01:18:10;15.40;99.90
22734;DHT22;11534;51.994;5.692;2023-08-08T01:20:37;15.40;99.90
22734;DHT22;11534;51.994;5.692;2023-08-08T01:23:14;15.30;99.90
22734;DHT22;11534;51.994;5.692;2023-08-08T01:25:41;15.30;99.90
22734;DHT22;11534;51.994;5.692;2023-08-08T01:28:08;15.20;99.90
22734;DHT22;11534;51.994;5.692;2023-08-08T01:30:33;15.20;99.90
22734;DHT22;11534;51.994;5.692;2023-08-08T01:32:59;15.30;99.90
22734;DHT22;11534;51.994;5.692;2023-08-08T01:35:28;15.20;99.90
22734;DHT22;11534;51.994;5.692;2023-08-08T01:38:02;15.30;99.90
22734;DHT22;11534;51.994;5.692;2023-08-08T01:40:30;15.30;99.90
22734;DHT22;11534;51.994;5.692;2023-08-08T01:42:58;15.20;99.90
22734;DHT22;11534;51.994;5.692;2023-08-08T01:45:24;15.20;99.90
22734;DHT22;11534;51.994;5.692;2023-08-08T01:47:51;15.20;99.90
22734;DHT22;11534;51.994;5.692;2023-08-08T01:50:17;15.20;99.90
22734;DHT22;11534;51.994;5.692;2023-08-08T01:52:43;15.20;99.90
22734;DHT22;11534;51.994;5.692;2023-08-08T01:55:09;15.20;99.90
22734;DHT22;11534;51.994;5.692;2023-08-08T01:57:34;15.20;99.90
22734;DHT22;11534;51.994;5.692;2023-08-08T02:00:00;15.10;99.90
22734;DHT22;11534;51.994;5.692;2023-08-08T02:02:26;15.20;99.90
22734;DHT22;11534;51.994;5.692;2023-08-08T02:04:52;15.10;99.90
22734;DHT22;11534;51.994;5.692;2023-08-08T02:07:18;15.10;99.90
22734;DHT22;11534;51.994;5.692;2023-08-08T02:09:44;15.20;99.90
22734;DHT22;11534;51.994;5.692;2023-08-08T02:12:11;15.10;99.90
22734;DHT22;11534;51.994;5.692;2023-08-08T02:14:37;15.10;99.90
22734;DHT22;11534;51.994;5.692;2023-08-08T02:17:03;15.10;99.90
22734;DHT22;11534;51.994;5.692;2023-08-08T02:19:29;15.00;99.90
22734;DHT22;11534;51.994;5.692;2023-08-08T02:21:55;15.00;99.90
22734;DHT22;11534;51.994;5.692;2023-08-08T02:24:21;15.00;99.90
22734;DHT22;11534;51.994;5.692;2023-08-08T02:26:46;15.00;99.90
22734;DHT22;11534;51.994;5.692;2023-08-08T02:29:12;14.90;99.90
22734;DHT22;11534;51.994;5.692;2023-08-08T02:31:38;14.90;99.90
22734;DHT22;11534;51.994;5.692;2023-08-08T02:34:03;14.90;99.90
22734;DHT22;11534;51.994;5.692;2023-08-08T02:36:29;14.90;99.90
22734;DHT22;11534;51.994;5.692;2023-08-08T02:38:54;14.90;99.90
22734;DHT22;11534;51.994;5.692;2023-08-08T02:41:20;14.90;99.90
22734;DHT22;11534;51.994;5.692;2023-08-08T02:43:46;14.90;99.90
22734;DHT22;11534;51.994;5.692;2023-08-08T02:46:12;14.90;99.90
22734;DHT22;11534;51.994;5.692;2023-08-08T02:48:37;14.90;99.90
22734;DHT22;11534;51.994;5.692;2023-08-08T02:51:03;14.80;99.90
22734;DHT22;11534;51.994;5.692;2023-08-08T02:53:29;14.80;99.90
22734;DHT22;11534;51.994;5.692;2023-08-08T02:55:54;14.80;99.90
22734;DHT22;11534;51.994;5.692;2023-08-08T02:58:20;14.80;99.90
22734;DHT22;11534;51.994;5.692;2023-08-08T03:00:45;14.80;99.90
22734;DHT22;11534;51.994;5.692;2023-08-08T03:03:11;14.80;99.90
22734;DHT22;11534;51.994;5.692;2023-08-08T03:05:37;14.70;99.90
22734;DHT22;11534;51.994;5.692;2023-08-08T03:08:02;14.70;99.90
22734;DHT22;11534;51.994;5.692;2023-08-08T03:10:28;14.70;99.90
22734;DHT22;11534;51.994;5.692;2023-08-08T03:12:54;14.70;99.90
22734;DHT22;11534;51.994;5.692;2023-08-08T03:15:19;14.70;99.90
22734;DHT22;11534;51.994;5.692;2023-08-08T03:17:45;14.70;99.90
22734;DHT22;11534;51.994;5.692;2023-08-08T03:20:11;14.70;99.90
22734;DHT22;11534;51.994;5.692;2023-08-08T03:22:37;14.70;99.90
22734;DHT22;11534;51.994;5.692;2023-08-08T03:25:03;14.70;99.90
22734;DHT22;11534;51.994;5.692;2023-08-08T03:27:30;14.80;99.90
22734;DHT22;11534;51.994;5.692;2023-08-08T03:29:56;14.80;99.90
22734;DHT22;11534;51.994;5.692;2023-08-08T03:32:22;14.80;99.90
22734;DHT22;11534;51.994;5.692;2023-08-08T03:34:48;14.80;99.90
22734;DHT22;11534;51.994;5.692;2023-08-08T03:37:13;14.80;99.90
22734;DHT22;11534;51.994;5.692;2023-08-08T03:39:39;14.70;99.90
22734;DHT22;11534;51.994;5.692;2023-08-08T03:42:05;14.80;99.90
22734;DHT22;11534;51.994;5.692;2023-08-08T03:44:30;14.80;99.90
22734;DHT22;11534;51.994;5.692;2023-08-08T03:46:56;14.80;99.90
22734;DHT22;11534;51.994;5.692;2023-08-08T03:49:22;14.80;99.90
22734;DHT22;11534;51.994;5.692;2023-08-08T03:51:47;14.80;99.90
22734;DHT22;11534;51.994;5.692;2023-08-08T03:54:14;14.80;99.90
22734;DHT22;11534;51.994;5.692;2023-08-08T03:56:40;14.80;99.90
22734;DHT22;11534;51.994;5.692;2023-08-08T03:59:06;14.80;99.90
22734;DHT22;11534;51.994;5.692;2023-08-08T04:01:32;14.80;99.90
22734;DHT22;11534;51.994;5.692;2023-08-08T04:03:58;14.80;99.90
22734;DHT22;11534;51.994;5.692;2023-08-08T04:06:24;14.80;99.90
22734;DHT22;11534;51.994;5.692;2023-08-08T04:08:49;14.80;99.90
22734;DHT22;11534;51.994;5.692;2023-08-08T04:11:15;14.80;99.90
22734;DHT22;11534;51.994;5.692;2023-08-08T04:13:41;14.80;99.90
22734;DHT22;11534;51.994;5.692;2023-08-08T04:16:06;14.80;99.90
22734;DHT22;11534;51.994;5.692;2023-08-08T04:18:32;14.80;99.90
22734;DHT22;11534;51.994;5.692;2023-08-08T04:20:58;14.80;99.90
22734;DHT22;11534;51.994;5.692;2023-08-08T04:23:23;14.70;99.90
22734;DHT22;11534;51.994;5.692;2023-08-08T04:25:51;14.80;99.90
22734;DHT22;11534;51.994;5.692;2023-08-08T04:28:17;14.70;99.90
22734;DHT22;11534;51.994;5.692;2023-08-08T04:30:43;14.70;99.90
22734;DHT22;11534;51.994;5.692;2023-08-08T04:33:09;14.80;99.90
22734;DHT22;11534;51.994;5.692;2023-08-08T04:35:35;14.70;99.90
22734;DHT22;11534;51.994;5.692;2023-08-08T04:38:00;14.80;99.90
22734;DHT22;11534;51.994;5.692;2023-08-08T04:40:26;14.80;99.90
22734;DHT22;11534;51.994;5.692;2023-08-08T04:42:52;14.80;99.90
22734;DHT22;11534;51.994;5.692;2023-08-08T04:45:17;14.80;99.90
22734;DHT22;11534;51.994;5.692;2023-08-08T04:47:43;14.80;99.90
22734;DHT22;11534;51.994;5.692;2023-08-08T04:50:10;14.80;99.90
22734;DHT22;11534;51.994;5.692;2023-08-08T04:52:35;14.90;99.90
22734;DHT22;11534;51.994;5.692;2023-08-08T04:55:01;14.90;99.90
22734;DHT22;11534;51.994;5.692;2023-08-08T04:57:27;14.90;99.90
22734;DHT22;11534;51.994;5.692;2023-08-08T04:59:52;14.90;99.90
22734;DHT22;11534;51.994;5.692;2023-08-08T05:02:18;14.90;99.90
22734;DHT22;11534;51.994;5.692;2023-08-08T05:04:44;14.90;99.90
22734;DHT22;11534;51.994;5.692;2023-08-08T05:07:09;14.80;99.90
22734;DHT22;11534;51.994;5.692;2023-08-08T05:09:35;14.80;99.90
22734;DHT22;11534;51.994;5.692;2023-08-08T05:12:01;14.80;99.90
22734;DHT22;11534;51.994;5.692;2023-08-08T05:14:26;14.80;99.90
22734;DHT22;11534;51.994;5.692;2023-08-08T05:16:52;14.90;99.90
22734;DHT22;11534;51.994;5.692;2023-08-08T05:19:17;14.80;99.90
22734;DHT22;11534;51.994;5.692;2023-08-08T05:21:43;14.90;99.90
22734;DHT22;11534;51.994;5.692;2023-08-08T05:24:09;15.00;99.90
22734;DHT22;11534;51.994;5.692;2023-08-08T05:26:34;15.00;99.90
22734;DHT22;11534;51.994;5.692;2023-08-08T05:29:00;15.00;99.90
22734;DHT22;11534;51.994;5.692;2023-08-08T05:31:25;15.00;99.90
22734;DHT22;11534;51.994;5.692;2023-08-08T05:33:51;15.00;99.90
22734;DHT22;11534;51.994;5.692;2023-08-08T05:36:17;15.00;99.90
22734;DHT22;11534;51.994;5.692;2023-08-08T05:38:42;15.10;99.90
22734;DHT22;11534;51.994;5.692;2023-08-08T05:41:08;15.10;99.90
22734;DHT22;11534;51.994;5.692;2023-08-08T05:43:34;15.20;99.90
22734;DHT22;11534;51.994;5.692;2023-08-08T05:46:00;15.20;99.90
22734;DHT22;11534;51.994;5.692;2023-08-08T05:48:25;15.20;99.90
22734;DHT22;11534;51.994;5.692;2023-08-08T05:50:51;15.30;99.90
22734;DHT22;11534;51.994;5.692;2023-08-08T05:53:16;15.30;99.90
22734;DHT22;11534;51.994;5.692;2023-08-08T05:55:42;15.30;99.90
22734;DHT22;11534;51.994;5.692;2023-08-08T05:58:08;15.30;99.90
22734;DHT22;11534;51.994;5.692;2023-08-08T06:00:34;15.30;99.90
22734;DHT22;11534;51.994;5.692;2023-08-08T06:03:00;15.40;99.90
22734;DHT22;11534;51.994;5.692;2023-08-08T06:05:26;15.40;99.90
22734;DHT22;11534;51.994;5.692;2023-08-08T06:07:51;15.40;99.90
22734;DHT22;11534;51.994;5.692;2023-08-08T06:10:17;15.40;99.90
22734;DHT22;11534;51.994;5.692;2023-08-08T06:12:43;15.40;99.90
22734;DHT22;11534;51.994;5.692;2023-08-08T06:15:09;15.50;99.90
22734;DHT22;11534;51.994;5.692;2023-08-08T06:17:34;15.50;99.90
22734;DHT22;11534;51.994;5.692;2023-08-08T06:20:00;15.50;99.90
22734;DHT22;11534;51.994;5.692;2023-08-08T06:22:26;15.50;99.90
22734;DHT22;11534;51.994;5.692;2023-08-08T06:24:51;15.50;99.90
22734;DHT22;11534;51.994;5.692;2023-08-08T06:27:17;15.50;99.90
22734;DHT22;11534;51.994;5.692;2023-08-08T06:29:43;15.50;99.90
22734;DHT22;11534;51.994;5.692;2023-08-08T06:32:09;15.50;99.90
22734;DHT22;11534;51.994;5.692;2023-08-08T06:34:34;15.50;99.90
22734;DHT22;11534;51.994;5.692;2023-08-08T06:37:00;15.50;99.90
22734;DHT22;11534;51.994;5.692;2023-08-08T06:39:26;15.50;99.90
22734;DHT22;11534;51.994;5.692;2023-08-08T06:41:51;15.50;99.90
22734;DHT22;11534;51.994;5.692;2023-08-08T06:44:17;15.50;99.90
22734;DHT22;11534;51.994;5.692;2023-08-08T06:46:43;15.50;99.90
22734;DHT22;11534;51.994;5.692;2023-08-08T06:49:08;15.50;99.90
22734;DHT22;11534;51.994;5.692;2023-08-08T06:51:35;15.60;99.90
22734;DHT22;11534;51.994;5.692;2023-08-08T06:54:00;15.60;99.90
22734;DHT22;11534;51.994;5.692;2023-08-08T06:56:26;15.60;99.90
22734;DHT22;11534;51.994;5.692;2023-08-08T06:58:53;15.60;99.90
22734;DHT22;11534;51.994;5.692;2023-08-08T07:01:18;15.70;99.90
22734;DHT22;11534;51.994;5.692;2023-08-08T07:03:44;15.70;99.90
22734;DHT22;11534;51.994;5.692;2023-08-08T07:06:10;15.70;99.90
22734;DHT22;11534;51.994;5.692;2023-08-08T07:08:36;15.70;99.90
22734;DHT22;11534;51.994;5.692;2023-08-08T07:11:05;15.70;99.90
22734;DHT22;11534;51.994;5.692;2023-08-08T07:13:31;15.80;99.90
22734;DHT22;11534;51.994;5.692;2023-08-08T07:15:57;15.80;99.90
22734;DHT22;11534;51.994;5.692;2023-08-08T07:18:23;15.80;99.90
22734;DHT22;11534;51.994;5.692;2023-08-08T07:20:48;15.90;99.90
22734;DHT22;11534;51.994;5.692;2023-08-08T07:23:15;16.00;99.90
22734;DHT22;11534;51.994;5.692;2023-08-08T07:25:42;16.00;99.90
22734;DHT22;11534;51.994;5.692;2023-08-08T07:28:07;16.00;99.90
22734;DHT22;11534;51.994;5.692;2023-08-08T07:30:34;16.00;99.90
22734;DHT22;11534;51.994;5.692;2023-08-08T07:33:03;16.10;99.90
22734;DHT22;11534;51.994;5.692;2023-08-08T07:35:28;16.10;99.90
22734;DHT22;11534;51.994;5.692;2023-08-08T07:37:54;16.10;99.90
22734;DHT22;11534;51.994;5.692;2023-08-08T07:40:20;16.20;99.90
22734;DHT22;11534;51.994;5.692;2023-08-08T07:42:47;16.20;99.90
22734;DHT22;11534;51.994;5.692;2023-08-08T07:45:13;16.20;99.90
22734;DHT22;11534;51.994;5.692;2023-08-08T07:47:39;16.20;99.90
22734;DHT22;11534;51.994;5.692;2023-08-08T07:50:05;16.30;99.90
22734;DHT22;11534;51.994;5.692;2023-08-08T07:52:34;16.50;99.90
22734;DHT22;11534;51.994;5.692;2023-08-08T07:55:00;16.50;99.90
22734;DHT22;11534;51.994;5.692;2023-08-08T07:57:27;16.50;99.90
22734;DHT22;11534;51.994;5.692;2023-08-08T07:59:53;16.50;99.90
22734;DHT22;11534;51.994;5.692;2023-08-08T08:02:20;16.60;99.90
22734;DHT22;11534;51.994;5.692;2023-08-08T08:04:45;16.70;99.90
22734;DHT22;11534;51.994;5.692;2023-08-08T08:07:11;16.80;99.90
22734;DHT22;11534;51.994;5.692;2023-08-08T08:09:38;16.90;99.90
22734;DHT22;11534;51.994;5.692;2023-08-08T08:12:04;16.90;99.90
22734;DHT22;11534;51.994;5.692;2023-08-08T08:14:30;16.90;99.90
22734;DHT22;11534;51.994;5.692;2023-08-08T08:16:56;16.80;99.90
22734;DHT22;11534;51.994;5.692;2023-08-08T08:19:22;16.90;99.90
22734;DHT22;11534;51.994;5.692;2023-08-08T08:21:47;16.90;99.90
22734;DHT22;11534;51.994;5.692;2023-08-08T08:24:13;17.00;99.90
22734;DHT22;11534;51.994;5.692;2023-08-08T08:26:39;17.00;99.90
22734;DHT22;11534;51.994;5.692;2023-08-08T08:29:04;17.00;99.90
22734;DHT22;11534;51.994;5.692;2023-08-08T08:31:30;17.10;99.90
22734;DHT22;11534;51.994;5.692;2023-08-08T08:33:56;17.10;99.90
22734;DHT22;11534;51.994;5.692;2023-08-08T08:36:21;17.20;99.90
22734;DHT22;11534;51.994;5.692;2023-08-08T08:38:47;17.30;99.90
22734;DHT22;11534;51.994;5.692;2023-08-08T08:41:17;17.30;99.90
22734;DHT22;11534;51.994;5.692;2023-08-08T08:43:43;17.30;99.90
22734;DHT22;11534;51.994;5.692;2023-08-08T08:46:11;17.20;99.90
22734;DHT22;11534;51.994;5.692;2023-08-08T08:48:37;17.20;99.90
22734;DHT22;11534;51.994;5.692;2023-08-08T08:51:03;17.30;99.90
22734;DHT22;11534;51.994;5.692;2023-08-08T08:53:29;17.40;99.90
22734;DHT22;11534;51.994;5.692;2023-08-08T08:55:56;17.40;99.90
22734;DHT22;11534;51.994;5.692;2023-08-08T08:58:26;17.50;99.90
22734;DHT22;11534;51.994;5.692;2023-08-08T09:00:54;17.50;99.90
22734;DHT22;11534;51.994;5.692;2023-08-08T09:03:19;17.50;99.90
22734;DHT22;11534;51.994;5.692;2023-08-08T09:05:45;17.50;99.90
22734;DHT22;11534;51.994;5.692;2023-08-08T09:08:13;17.50;99.90
22734;DHT22;11534;51.994;5.692;2023-08-08T09:10:41;17.60;99.90
22734;DHT22;11534;51.994;5.692;2023-08-08T09:13:07;17.60;99.90
22734;DHT22;11534;51.994;5.692;2023-08-08T09:15:34;17.60;99.90
22734;DHT22;11534;51.994;5.692;2023-08-08T09:18:00;17.60;99.90
22734;DHT22;11534;51.994;5.692;2023-08-08T09:20:27;17.70;99.90
22734;DHT22;11534;51.994;5.692;2023-08-08T09:22:56;17.70;99.90
22734;DHT22;11534;51.994;5.692;2023-08-08T09:25:22;17.70;99.90
22734;DHT22;11534;51.994;5.692;2023-08-08T09:27:50;17.70;99.90
22734;DHT22;11534;51.994;5.692;2023-08-08T09:30:16;17.70;99.90
22734;DHT22;11534;51.994;5.692;2023-08-08T09:32:43;17.80;99.90
22734;DHT22;11534;51.994;5.692;2023-08-08T09:35:10;17.80;99.90
22734;DHT22;11534;51.994;5.692;2023-08-08T09:37:37;17.90;99.90
22734;DHT22;11534;51.994;5.692;2023-08-08T09:40:04;17.90;99.90
22734;DHT22;11534;51.994;5.692;2023-08-08T09:42:31;17.90;99.90
22734;DHT22;11534;51.994;5.692;2023-08-08T09:44:57;17.90;99.90
22734;DHT22;11534;51.994;5.692;2023-08-08T09:47:24;18.10;99.90
22734;DHT22;11534;51.994;5.692;2023-08-08T09:49:50;18.20;99.90
22734;DHT22;11534;51.994;5.692;2023-08-08T09:52:16;18.30;99.90
22734;DHT22;11534;51.994;5.692;2023-08-08T09:54:42;18.30;99.90
22734;DHT22;11534;51.994;5.692;2023-08-08T09:57:09;18.40;99.90
22734;DHT22;11534;51.994;5.692;2023-08-08T09:59:35;18.50;99.90
22734;DHT22;11534;51.994;5.692;2023-08-08T10:02:01;18.70;99.90
22734;DHT22;11534;51.994;5.692;2023-08-08T10:04:27;18.70;99.90
22734;DHT22;11534;51.994;5.692;2023-08-08T10:06:53;18.60;99.90
22734;DHT22;11534;51.994;5.692;2023-08-08T10:09:19;18.70;99.90
22734;DHT22;11534;51.994;5.692;2023-08-08T10:11:46;18.80;99.90
22734;DHT22;11534;51.994;5.692;2023-08-08T10:14:12;18.90;99.90
22734;DHT22;11534;51.994;5.692;2023-08-08T10:16:41;19.10;99.90
22734;DHT22;11534;51.994;5.692;2023-08-08T10:19:07;19.20;99.90
22734;DHT22;11534;51.994;5.692;2023-08-08T10:21:42;19.20;99.90
22734;DHT22;11534;51.994;5.692;2023-08-08T10:24:09;19.30;99.90
22734;DHT22;11534;51.994;5.692;2023-08-08T10:26:54;19.30;99.90
22734;DHT22;11534;51.994;5.692;2023-08-08T10:29:24;19.30;99.90
22734;DHT22;11534;51.994;5.692;2023-08-08T10:32:05;19.30;99.90
22734;DHT22;11534;51.994;5.692;2023-08-08T10:34:42;19.30;99.90
22734;DHT22;11534;51.994;5.692;2023-08-08T10:37:15;19.30;99.90
22734;DHT22;11534;51.994;5.692;2023-08-08T10:39:53;19.60;99.90
22734;DHT22;11534;51.994;5.692;2023-08-08T10:42:20;19.80;99.90
22734;DHT22;11534;51.994;5.692;2023-08-08T10:45:01;19.80;99.90
22734;DHT22;11534;51.994;5.692;2023-08-08T10:47:45;19.70;99.90
22734;DHT22;11534;51.994;5.692;2023-08-08T10:50:16;19.70;99.90
22734;DHT22;11534;51.994;5.692;2023-08-08T10:55:26;19.50;99.90
22734;DHT22;11534;51.994;5.692;2023-08-08T10:58:09;19.60;99.90
22734;DHT22;11534;51.994;5.692;2023-08-08T11:00:37;19.90;99.90
22734;DHT22;11534;51.994;5.692;2023-08-08T11:03:05;20.20;99.90
22734;DHT22;11534;51.994;5.692;2023-08-08T11:05:36;20.40;99.90
22734;DHT22;11534;51.994;5.692;2023-08-08T11:08:03;20.40;99.90
22734;DHT22;11534;51.994;5.692;2023-08-08T11:10:34;20.40;99.90
22734;DHT22;11534;51.994;5.692;2023-08-08T11:13:05;20.20;99.90
22734;DHT22;11534;51.994;5.692;2023-08-08T11:15:50;20.10;99.90
22734;DHT22;11534;51.994;5.692;2023-08-08T11:18:16;20.00;99.90
22734;DHT22;11534;51.994;5.692;2023-08-08T11:20:42;20.00;99.90
22734;DHT22;11534;51.994;5.692;2023-08-08T11:23:09;19.80;99.90
22734;DHT22;11534;51.994;5.692;2023-08-08T11:25:37;19.50;99.90
22734;DHT22;11534;51.994;5.692;2023-08-08T11:28:05;19.30;99.90
22734;DHT22;11534;51.994;5.692;2023-08-08T11:30:34;19.40;99.90
22734;DHT22;11534;51.994;5.692;2023-08-08T11:33:00;19.60;99.90
22734;DHT22;11534;51.994;5.692;2023-08-08T11:35:26;19.80;99.90
22734;DHT22;11534;51.994;5.692;2023-08-08T11:37:56;20.10;99.90
22734;DHT22;11534;51.994;5.692;2023-08-08T11:40:24;20.30;99.90
22734;DHT22;11534;51.994;5.692;2023-08-08T11:42:51;20.80;99.90
22734;DHT22;11534;51.994;5.692;2023-08-08T11:45:17;21.10;99.90
22734;DHT22;11534;51.994;5.692;2023-08-08T11:47:43;21.20;99.90
22734;DHT22;11534;51.994;5.692;2023-08-08T11:50:10;21.40;99.90
22734;DHT22;11534;51.994;5.692;2023-08-08T11:52:45;21.50;99.90
22734;DHT22;11534;51.994;5.692;2023-08-08T11:55:12;21.50;99.90
22734;DHT22;11534;51.994;5.692;2023-08-08T11:57:39;21.60;99.90
22734;DHT22;11534;51.994;5.692;2023-08-08T12:00:10;21.40;99.90
22734;DHT22;11534;51.994;5.692;2023-08-08T12:02:40;21.40;99.90
22734;DHT22;11534;51.994;5.692;2023-08-08T12:05:07;21.60;99.90
22734;DHT22;11534;51.994;5.692;2023-08-08T12:07:36;21.70;99.90
22734;DHT22;11534;51.994;5.692;2023-08-08T12:10:06;21.80;99.90
22734;DHT22;11534;51.994;5.692;2023-08-08T12:12:32;21.90;99.90
22734;DHT22;11534;51.994;5.692;2023-08-08T12:15:05;21.90;99.90
22734;DHT22;11534;51.994;5.692;2023-08-08T12:17:31;21.60;99.90
22734;DHT22;11534;51.994;5.692;2023-08-08T12:20:00;21.50;99.90
22734;DHT22;11534;51.994;5.692;2023-08-08T12:22:26;21.30;99.90
22734;DHT22;11534;51.994;5.692;2023-08-08T12:24:52;21.10;99.90
22734;DHT22;11534;51.994;5.692;2023-08-08T12:27:18;20.90;99.90
22734;DHT22;11534;51.994;5.692;2023-08-08T12:29:43;20.80;99.90
22734;DHT22;11534;51.994;5.692;2023-08-08T12:32:10;20.90;99.90
22734;DHT22;11534;51.994;5.692;2023-08-08T12:34:35;21.00;99.90
22734;DHT22;11534;51.994;5.692;2023-08-08T12:37:01;21.50;99.90
22734;DHT22;11534;51.994;5.692;2023-08-08T12:39:28;21.50;99.90
22734;DHT22;11534;51.994;5.692;2023-08-08T12:41:54;21.50;99.90
22734;DHT22;11534;51.994;5.692;2023-08-08T12:44:20;22.00;99.90
22734;DHT22;11534;51.994;5.692;2023-08-08T12:46:45;22.30;99.90
22734;DHT22;11534;51.994;5.692;2023-08-08T12:49:11;22.30;99.90
22734;DHT22;11534;51.994;5.692;2023-08-08T12:51:37;22.50;99.90
22734;DHT22;11534;51.994;5.692;2023-08-08T12:54:03;22.90;99.90
22734;DHT22;11534;51.994;5.692;2023-08-08T12:56:28;23.10;99.90
22734;DHT22;11534;51.994;5.692;2023-08-08T12:58:54;23.10;99.90
22734;DHT22;11534;51.994;5.692;2023-08-08T13:01:19;22.90;99.90
22734;DHT22;11534;51.994;5.692;2023-08-08T13:03:45;22.50;99.90
22734;DHT22;11534;51.994;5.692;2023-08-08T13:06:11;22.00;99.90
22734;DHT22;11534;51.994;5.692;2023-08-08T13:08:38;21.60;99.90
22734;DHT22;11534;51.994;5.692;2023-08-08T13:11:04;21.20;99.90
22734;DHT22;11534;51.994;5.692;2023-08-08T13:13:30;21.00;99.90
22734;DHT22;11534;51.994;5.692;2023-08-08T13:15:56;20.70;99.90
22734;DHT22;11534;51.994;5.692;2023-08-08T13:18:22;20.50;99.90
22734;DHT22;11534;51.994;5.692;2023-08-08T13:20:48;20.50;99.90
22734;DHT22;11534;51.994;5.692;2023-08-08T13:23:14;20.30;99.90
22734;DHT22;11534;51.994;5.692;2023-08-08T13:25:39;20.30;99.90
22734;DHT22;11534;51.994;5.692;2023-08-08T13:28:06;20.50;99.90
22734;DHT22;11534;51.994;5.692;2023-08-08T13:30:32;20.70;99.90
22734;DHT22;11534;51.994;5.692;2023-08-08T13:32:58;21.10;99.90
22734;DHT22;11534;51.994;5.692;2023-08-08T13:35:24;21.20;99.90
22734;DHT22;11534;51.994;5.692;2023-08-08T13:37:50;21.40;99.90
22734;DHT22;11534;51.994;5.692;2023-08-08T13:40:18;21.50;99.90
22734;DHT22;11534;51.994;5.692;2023-08-08T13:42:43;21.90;99.90
22734;DHT22;11534;51.994;5.692;2023-08-08T13:45:13;21.90;99.90
22734;DHT22;11534;51.994;5.692;2023-08-08T13:47:39;21.90;99.90
22734;DHT22;11534;51.994;5.692;2023-08-08T13:50:05;21.80;99.90
22734;DHT22;11534;51.994;5.692;2023-08-08T13:52:31;21.80;99.90
22734;DHT22;11534;51.994;5.692;2023-08-08T13:54:58;22.00;99.90
22734;DHT22;11534;51.994;5.692;2023-08-08T13:57:24;22.10;99.90
22734;DHT22;11534;51.994;5.692;2023-08-08T13:59:49;22.30;99.90
22734;DHT22;11534;51.994;5.692;2023-08-08T14:02:15;22.20;99.90
22734;DHT22;11534;51.994;5.692;2023-08-08T14:04:46;22.00;99.90
22734;DHT22;11534;51.994;5.692;2023-08-08T14:07:11;21.70;99.90
22734;DHT22;11534;51.994;5.692;2023-08-08T14:09:37;21.30;99.90
22734;DHT22;11534;51.994;5.692;2023-08-08T14:12:03;21.00;99.90
22734;DHT22;11534;51.994;5.692;2023-08-08T14:14:29;20.70;99.90
22734;DHT22;11534;51.994;5.692;2023-08-08T14:16:55;20.70;99.90
22734;DHT22;11534;51.994;5.692;2023-08-08T14:19:20;20.50;99.90
22734;DHT22;11534;51.994;5.692;2023-08-08T14:21:46;20.50;99.90
22734;DHT22;11534;51.994;5.692;2023-08-08T14:24:12;20.40;99.90
22734;DHT22;11534;51.994;5.692;2023-08-08T14:26:37;20.40;99.90
22734;DHT22;11534;51.994;5.692;2023-08-08T14:29:03;20.40;99.90
22734;DHT22;11534;51.994;5.692;2023-08-08T14:31:30;20.50;99.90
22734;DHT22;11534;51.994;5.692;2023-08-08T14:33:55;20.60;99.90
22734;DHT22;11534;51.994;5.692;2023-08-08T14:36:21;20.60;99.90
22734;DHT22;11534;51.994;5.692;2023-08-08T14:38:46;20.70;99.90
22734;DHT22;11534;51.994;5.692;2023-08-08T14:41:12;20.60;99.90
22734;DHT22;11534;51.994;5.692;2023-08-08T14:43:38;20.60;99.90
22734;DHT22;11534;51.994;5.692;2023-08-08T14:46:03;20.80;99.90
22734;DHT22;11534;51.994;5.692;2023-08-08T14:48:29;21.20;99.90
22734;DHT22;11534;51.994;5.692;2023-08-08T14:50:55;21.30;99.90
22734;DHT22;11534;51.994;5.692;2023-08-08T14:53:20;21.30;99.90
22734;DHT22;11534;51.994;5.692;2023-08-08T14:55:46;21.40;99.90
22734;DHT22;11534;51.994;5.692;2023-08-08T14:58:13;21.20;99.90
22734;DHT22;11534;51.994;5.692;2023-08-08T15:00:40;21.20;99.90
22734;DHT22;11534;51.994;5.692;2023-08-08T15:03:05;21.30;99.90
22734;DHT22;11534;51.994;5.692;2023-08-08T15:05:31;21.20;99.90
22734;DHT22;11534;51.994;5.692;2023-08-08T15:07:57;21.10;99.90
22734;DHT22;11534;51.994;5.692;2023-08-08T15:10:23;20.90;99.90
22734;DHT22;11534;51.994;5.692;2023-08-08T15:12:48;20.80;99.90
22734;DHT22;11534;51.994;5.692;2023-08-08T15:15:14;20.70;99.90
22734;DHT22;11534;51.994;5.692;2023-08-08T15:17:42;20.60;99.90
22734;DHT22;11534;51.994;5.692;2023-08-08T15:20:09;20.50;99.90
22734;DHT22;11534;51.994;5.692;2023-08-08T15:22:35;20.50;99.90
22734;DHT22;11534;51.994;5.692;2023-08-08T15:25:01;20.50;99.90
22734;DHT22;11534;51.994;5.692;2023-08-08T15:27:26;20.50;99.90
22734;DHT22;11534;51.994;5.692;2023-08-08T15:29:52;20.50;99.90